Time,TemperatureF,DewpointF,PressureIn,WindDirection,WindDirectionDegrees,WindSpeedMPH,WindSpeedGustMPH,Humidity,HourlyPrecipIn,Conditions,Clouds,dailyrainin,SoftwareType,DateUTC
2013-02-19 00:01:00,33.0,20.0,-100.00,SSW,210,13.0,16.0,58,-99.99,,,-99.99,,2013-02-19 05:01:00,
2013-02-19 00:12:00,33.0,20.0,-100.00,SSW,210,13.0,16.0,58,-99.99,,,-99.99,,2013-02-19 05:12:00,
2013-02-19 00:22:00,33.0,20.0,-100.00,SW,220,13.0,18.0,56,-99.99,,,-99.99,,2013-02-19 05:22:00,
2013-02-19 00:31:00,33.0,20.0,-100.00,SW,220,13.0,18.0,56,-99.99,,,-99.99,,2013-02-19 05:31:00,
2013-02-19 00:42:00,33.0,20.0,-100.00,SW,220,13.0,16.0,57,-99.99,,,-99.99,,2013-02-19 05:42:00,
2013-02-19 00:52:00,33.0,20.0,-100.00,SW,220,13.0,16.0,57,-99.99,,,-99.99,,2013-02-19 05:52:00,
2013-02-19 01:00:00,34.0,22.0,-100.00,SW,230,13.0,18.0,59,-99.99,,,-99.99,,2013-02-19 06:00:00,
2013-02-19 01:02:00,34.0,20.0,-100.00,WSW,240,13.0,18.0,56,-99.99,,,-99.99,,2013-02-19 06:02:00,
2013-02-19 01:11:00,34.0,20.0,-100.00,WSW,240,13.0,18.0,56,-99.99,,,-99.99,,2013-02-19 06:11:00,
2013-02-19 01:21:00,34.0,20.0,-100.00,WSW,240,13.0,18.0,56,-99.99,,,-99.99,,2013-02-19 06:21:00,
2013-02-19 01:32:00,34.0,22.0,-100.00,SW,230,13.0,18.0,59,-99.99,,,-99.99,,2013-02-19 06:32:00,
2013-02-19 01:41:00,34.0,22.0,-100.00,SW,230,13.0,18.0,59,-99.99,,,-99.99,,2013-02-19 06:41:00,
2013-02-19 01:52:00,34.0,22.0,-100.00,SW,230,13.0,18.0,59,-99.99,,,-99.99,,2013-02-19 06:52:00,
2013-02-19 02:00:00,34.0,21.0,-100.00,SW,230,11.0,13.0,59,-99.99,,,-99.99,,2013-02-19 07:00:00,
2013-02-19 02:21:00,34.0,21.0,-100.00,SW,230,11.0,13.0,58,-99.99,,,-99.99,,2013-02-19 07:21:00,
2013-02-19 02:31:00,34.0,21.0,-100.00,SW,230,11.0,13.0,58,-99.99,,,-99.99,,2013-02-19 07:31:00,
2013-02-19 02:41:00,34.0,21.0,-100.00,SW,230,11.0,13.0,59,-99.99,,,-99.99,,2013-02-19 07:41:00,
2013-02-19 02:51:00,34.0,21.0,-100.00,SW,230,11.0,13.0,59,-99.99,,,-99.99,,2013-02-19 07:51:00,
2013-02-19 03:21:00,34.0,20.0,-100.00,WSW,240,13.0,16.0,55,-99.99,,,-99.99,,2013-02-19 08:21:00,
2013-02-19 03:31:00,34.0,20.0,-100.00,WSW,240,13.0,16.0,55,-99.99,,,-99.99,,2013-02-19 08:31:00,
2013-02-19 03:41:00,34.0,21.0,-100.00,SW,230,11.0,13.0,59,-99.99,,,-99.99,,2013-02-19 08:41:00,
2013-02-19 03:52:00,34.0,21.0,-100.00,SW,230,11.0,13.0,59,-99.99,,,-99.99,,2013-02-19 08:52:00,
2013-02-19 04:01:00,34.0,23.0,-100.00,WSW,240,9.0,11.0,63,-99.99,,,-99.99,,2013-02-19 09:01:00,
2013-02-19 04:11:00,34.0,23.0,-100.00,WSW,240,9.0,11.0,63,-99.99,,,-99.99,,2013-02-19 09:11:00,
2013-02-19 04:21:00,34.0,23.0,-100.00,WSW,240,9.0,11.0,63,-99.99,,,-99.99,,2013-02-19 09:21:00,
2013-02-19 04:31:00,34.0,24.0,-100.00,WSW,240,11.0,13.0,64,-99.99,,,-99.99,,2013-02-19 09:31:00,
2013-02-19 04:41:00,34.0,24.0,-100.00,WSW,240,11.0,13.0,64,-99.99,,,-99.99,,2013-02-19 09:41:00,
2013-02-19 04:52:00,34.0,24.0,-100.00,WSW,240,11.0,13.0,64,-99.99,,,-99.99,,2013-02-19 09:52:00,
2013-02-19 05:01:00,35.0,23.0,-100.00,WSW,240,9.0,11.0,62,-99.99,,,-99.99,,2013-02-19 10:01:00,
2013-02-19 05:11:00,35.0,23.0,-100.00,WSW,240,9.0,11.0,62,-99.99,,,-99.99,,2013-02-19 10:11:00,
2013-02-19 05:21:00,35.0,23.0,-100.00,WSW,240,9.0,11.0,62,-99.99,,,-99.99,,2013-02-19 10:21:00,
2013-02-19 05:31:00,34.0,24.0,-100.00,SW,230,9.0,9.0,65,-99.99,,,-99.99,,2013-02-19 10:31:00,
2013-02-19 05:41:00,34.0,24.0,-100.00,SW,230,9.0,9.0,65,-99.99,,,-99.99,,2013-02-19 10:41:00,
2013-02-19 05:51:00,34.0,24.0,-100.00,SW,230,9.0,9.0,65,-99.99,,,-99.99,,2013-02-19 10:51:00,
2013-02-19 06:01:00,34.0,26.0,-100.00,SSW,200,7.0,7.0,70,-99.99,,,-99.99,,2013-02-19 11:01:00,
2013-02-19 06:11:00,34.0,26.0,-100.00,SSW,200,7.0,7.0,70,-99.99,,,-99.99,,2013-02-19 11:11:00,
2013-02-19 06:21:00,34.0,26.0,-100.00,South,190,7.0,7.0,71,-99.99,,,-99.99,,2013-02-19 11:21:00,
2013-02-19 06:31:00,34.0,26.0,-100.00,South,190,7.0,7.0,71,-99.99,,,-99.99,,2013-02-19 11:31:00,
2013-02-19 06:41:00,34.0,26.0,-100.00,South,180,4.0,7.0,72,-99.99,,,-99.99,,2013-02-19 11:41:00,
2013-02-19 06:51:00,34.0,26.0,-100.00,South,180,4.0,7.0,72,-99.99,,,-99.99,,2013-02-19 11:51:00,
2013-02-19 07:01:00,35.0,27.0,-100.00,SSE,160,9.0,9.0,74,-99.99,,,-99.99,,2013-02-19 12:01:00,
2013-02-19 07:12:00,35.0,27.0,-100.00,SSE,160,9.0,9.0,74,-99.99,,,-99.99,,2013-02-19 12:12:00,
2013-02-19 07:21:00,35.0,27.0,-100.00,SSE,160,9.0,11.0,75,-99.99,,,-99.99,,2013-02-19 12:21:00,
2013-02-19 07:32:00,35.0,27.0,-100.00,SSE,160,9.0,11.0,75,-99.99,,,-99.99,,2013-02-19 12:32:00,
2013-02-19 07:41:00,35.0,29.0,-100.00,SSE,150,7.0,9.0,77,-99.99,,,-99.99,,2013-02-19 12:41:00,
2013-02-19 07:52:00,35.0,29.0,-100.00,SSE,150,7.0,9.0,77,-99.99,,,-99.99,,2013-02-19 12:52:00,
2013-02-19 08:01:00,35.0,29.0,-100.00,SSE,150,7.0,9.0,78,-99.99,,,-99.99,,2013-02-19 13:01:00,
2013-02-19 08:11:00,35.0,29.0,-100.00,SSE,150,7.0,9.0,78,-99.99,,,-99.99,,2013-02-19 13:11:00,
2013-02-19 08:21:00,36.0,30.0,-100.00,SSE,160,7.0,9.0,79,-99.99,,,-99.99,,2013-02-19 13:21:00,
2013-02-19 08:31:00,36.0,30.0,-100.00,SSE,160,7.0,9.0,79,-99.99,,,-99.99,,2013-02-19 13:31:00,
2013-02-19 08:41:00,37.0,31.0,-100.00,SSE,150,4.0,7.0,80,-99.99,,,-99.99,,2013-02-19 13:41:00,
2013-02-19 08:52:00,37.0,31.0,-100.00,SSE,150,4.0,7.0,80,-99.99,,,-99.99,,2013-02-19 13:52:00,
2013-02-19 09:01:00,37.0,32.0,-100.00,SSE,160,7.0,9.0,81,-99.99,,,-99.99,,2013-02-19 14:01:00,
2013-02-19 09:11:00,37.0,32.0,-100.00,SSE,160,7.0,9.0,81,-99.99,,,-99.99,,2013-02-19 14:11:00,
2013-02-19 09:21:00,38.0,33.0,-100.00,South,170,7.0,9.0,81,-99.99,,,-99.99,,2013-02-19 14:21:00,
2013-02-19 09:32:00,38.0,33.0,-100.00,South,170,7.0,9.0,81,-99.99,,,-99.99,,2013-02-19 14:32:00,
2013-02-19 09:41:00,38.0,33.0,-100.00,SSE,160,7.0,7.0,82,-99.99,,,-99.99,,2013-02-19 14:41:00,
2013-02-19 09:52:00,38.0,33.0,-100.00,SSE,160,7.0,7.0,82,-99.99,,,-99.99,,2013-02-19 14:52:00,
2013-02-19 10:01:00,38.0,34.0,-100.00,South,180,9.0,11.0,83,-99.99,,,-99.99,,2013-02-19 15:01:00,
2013-02-19 10:11:00,38.0,34.0,-100.00,South,180,9.0,11.0,83,-99.99,,,-99.99,,2013-02-19 15:11:00,
2013-02-19 10:21:00,39.0,33.0,-100.00,South,190,9.0,11.0,81,-99.99,,,-99.99,,2013-02-19 15:21:00,
2013-02-19 10:31:00,39.0,33.0,-100.00,South,190,9.0,11.0,81,-99.99,,,-99.99,,2013-02-19 15:31:00,
2013-02-19 10:41:00,40.0,33.0,-100.00,South,190,13.0,16.0,76,-99.99,,,-99.99,,2013-02-19 15:41:00,
2013-02-19 10:52:00,40.0,33.0,-100.00,South,190,13.0,16.0,76,-99.99,,,-99.99,,2013-02-19 15:52:00,
2013-02-19 11:01:00,40.0,33.0,-100.00,SSW,200,11.0,13.0,76,-99.99,,,-99.99,,2013-02-19 16:01:00,
2013-02-19 11:11:00,40.0,33.0,-100.00,SSW,200,11.0,13.0,76,-99.99,,,-99.99,,2013-02-19 16:11:00,
2013-02-19 11:21:00,40.0,33.0,-100.00,SSW,200,13.0,16.0,74,-99.99,,,-99.99,,2013-02-19 16:21:00,
2013-02-19 11:31:00,40.0,33.0,-100.00,SSW,200,13.0,16.0,74,-99.99,,,-99.99,,2013-02-19 16:31:00,
2013-02-19 11:41:00,39.0,33.0,-100.00,South,180,9.0,9.0,79,-99.99,,,-99.99,,2013-02-19 16:41:00,
2013-02-19 11:51:00,39.0,33.0,-100.00,South,180,9.0,9.0,79,-99.99,,,-99.99,,2013-02-19 16:51:00,
2013-02-19 12:01:00,39.0,33.0,-100.00,South,180,9.0,9.0,79,-99.99,,,-99.99,,2013-02-19 17:01:00,
2013-02-19 12:11:00,39.0,33.0,-100.00,South,180,9.0,9.0,79,-99.99,,,-99.99,,2013-02-19 17:11:00,
2013-02-19 12:21:00,40.0,34.0,-100.00,South,180,11.0,16.0,77,-99.99,,,-99.99,,2013-02-19 17:21:00,
2013-02-19 12:31:00,40.0,34.0,-100.00,South,180,11.0,16.0,77,-99.99,,,-99.99,,2013-02-19 17:31:00,
2013-02-19 12:41:00,41.0,34.0,-100.00,South,190,16.0,20.0,75,-99.99,,,-99.99,,2013-02-19 17:41:00,
2013-02-19 12:51:00,41.0,34.0,-100.00,South,190,16.0,20.0,75,-99.99,,,-99.99,,2013-02-19 17:51:00,
2013-02-19 13:00:00,41.0,35.0,-100.00,South,190,11.0,16.0,78,-99.99,,,-99.99,,2013-02-19 18:00:00,
2013-02-19 13:01:00,41.0,34.0,-100.00,South,190,16.0,20.0,75,-99.99,,,-99.99,,2013-02-19 18:01:00,
2013-02-19 13:11:00,41.0,34.0,-100.00,South,190,16.0,20.0,75,-99.99,,,-99.99,,2013-02-19 18:11:00,
2013-02-19 13:21:00,41.0,35.0,-100.00,South,190,13.0,16.0,77,-99.99,,,-99.99,,2013-02-19 18:21:00,
2013-02-19 13:31:00,41.0,35.0,-100.00,South,190,11.0,16.0,78,-99.99,,,-99.99,,2013-02-19 18:31:00,
2013-02-19 13:41:00,41.0,35.0,-100.00,South,190,11.0,16.0,78,-99.99,,,-99.99,,2013-02-19 18:41:00,
2013-02-19 13:51:00,41.0,35.0,-100.00,South,190,11.0,16.0,78,-99.99,,,-99.99,,2013-02-19 18:51:00,
2013-02-19 14:11:00,42.0,35.0,-100.00,South,190,16.0,18.0,75,-99.99,,,-99.99,,2013-02-19 19:11:00,
2013-02-19 14:21:00,42.0,35.0,-100.00,South,190,16.0,18.0,75,-99.99,,,-99.99,,2013-02-19 19:21:00,
2013-02-19 14:31:00,42.0,35.0,-100.00,South,190,16.0,18.0,75,-99.99,,,-99.99,,2013-02-19 19:31:00,
2013-02-19 14:41:00,42.0,36.0,-100.00,South,180,16.0,18.0,77,-99.99,,,-99.99,,2013-02-19 19:41:00,
2013-02-19 14:51:00,42.0,36.0,-100.00,South,180,16.0,18.0,77,-99.99,,,-99.99,,2013-02-19 19:51:00,
2013-02-19 15:01:00,42.0,36.0,-100.00,South,190,16.0,22.0,79,-99.99,,,-99.99,,2013-02-19 20:01:00,
2013-02-19 15:11:00,42.0,36.0,-100.00,South,190,16.0,22.0,79,-99.99,,,-99.99,,2013-02-19 20:11:00,
2013-02-19 15:21:00,42.0,37.0,-100.00,SSW,200,16.0,18.0,82,-99.99,,,-99.99,,2013-02-19 20:21:00,
2013-02-19 15:31:00,42.0,37.0,-100.00,SSW,200,16.0,18.0,82,-99.99,,,-99.99,,2013-02-19 20:31:00,
2013-02-19 15:41:00,41.0,37.0,-100.00,SSW,210,13.0,16.0,85,-99.99,,,-99.99,,2013-02-19 20:41:00,
2013-02-19 15:52:00,41.0,37.0,-100.00,SSW,210,13.0,16.0,85,-99.99,,,-99.99,,2013-02-19 20:52:00,
2013-02-19 16:01:00,40.0,37.0,-100.00,South,180,9.0,13.0,89,-99.99,,,-99.99,,2013-02-19 21:01:00,
2013-02-19 16:11:00,40.0,37.0,-100.00,South,180,9.0,13.0,89,-99.99,,,-99.99,,2013-02-19 21:11:00,
2013-02-19 16:21:00,40.0,37.0,-100.00,South,180,9.0,13.0,89,-99.99,,,-99.99,,2013-02-19 21:21:00,
2013-02-19 16:31:00,40.0,38.0,-100.00,SSW,200,9.0,11.0,92,-99.99,,,-99.99,,2013-02-19 21:31:00,
2013-02-19 16:42:00,40.0,38.0,-100.00,SSW,200,9.0,11.0,92,-99.99,,,-99.99,,2013-02-19 21:42:00,
2013-02-19 16:51:00,40.0,38.0,-100.00,SSW,200,9.0,11.0,92,-99.99,,,-99.99,,2013-02-19 21:51:00,
2013-02-19 17:00:00,40.0,39.0,-100.00,South,170,11.0,13.0,95,-99.99,,,-99.99,,2013-02-19 22:00:00,
2013-02-19 17:01:00,40.0,39.0,-100.00,South,190,11.0,13.0,93,-99.99,,,-99.99,,2013-02-19 22:01:00,
2013-02-19 17:11:00,40.0,39.0,-100.00,South,190,11.0,13.0,93,-99.99,,,-99.99,,2013-02-19 22:11:00,
2013-02-19 17:21:00,40.0,39.0,-100.00,South,190,11.0,13.0,93,-99.99,,,-99.99,,2013-02-19 22:21:00,
2013-02-19 17:31:00,40.0,38.0,-100.00,South,170,11.0,11.0,95,-99.99,,,-99.99,,2013-02-19 22:31:00,
2013-02-19 17:41:00,40.0,39.0,-100.00,South,170,11.0,13.0,95,-99.99,,,-99.99,,2013-02-19 22:41:00,
2013-02-19 17:51:00,40.0,39.0,-100.00,South,170,11.0,13.0,95,-99.99,,,-99.99,,2013-02-19 22:51:00,
2013-02-19 18:21:00,41.0,40.0,-100.00,South,180,13.0,16.0,97,-99.99,,,-99.99,,2013-02-19 23:21:00,
2013-02-19 18:31:00,41.0,40.0,-100.00,South,180,13.0,16.0,97,-99.99,,,-99.99,,2013-02-19 23:31:00,
2013-02-19 18:41:00,41.0,40.0,-100.00,South,180,13.0,16.0,97,-99.99,,,-99.99,,2013-02-19 23:41:00,
2013-02-19 18:51:00,41.0,40.0,-100.00,South,180,13.0,16.0,97,-99.99,,,-99.99,,2013-02-19 23:51:00,
2013-02-19 19:00:00,44.0,42.0,-100.00,SSW,210,18.0,22.0,95,-99.99,,,-99.99,,2013-02-20 00:00:00,
2013-02-19 19:01:00,42.0,42.0,-100.00,SSW,200,13.0,18.0,97,-99.99,,,-99.99,,2013-02-20 00:01:00,
2013-02-19 19:11:00,42.0,42.0,-100.00,SSW,200,13.0,18.0,97,-99.99,,,-99.99,,2013-02-20 00:11:00,
2013-02-19 19:21:00,43.0,42.0,-100.00,SSW,210,18.0,25.0,97,-99.99,,,-99.99,,2013-02-20 00:21:00,
2013-02-19 19:31:00,43.0,42.0,-100.00,SSW,210,18.0,25.0,97,-99.99,,,-99.99,,2013-02-20 00:31:00,
2013-02-19 19:41:00,44.0,42.0,-100.00,SSW,210,18.0,22.0,95,-99.99,,,-99.99,,2013-02-20 00:41:00,
2013-02-19 19:51:00,44.0,42.0,-100.00,SSW,210,18.0,22.0,95,-99.99,,,-99.99,,2013-02-20 00:51:00,
2013-02-19 21:21:00,39.0,39.0,-100.00,SW,230,9.0,11.0,97,-99.99,,,-99.99,,2013-02-20 02:21:00,
2013-02-19 21:31:00,39.0,39.0,-100.00,SW,230,9.0,11.0,97,-99.99,,,-99.99,,2013-02-20 02:31:00,
2013-02-19 21:41:00,39.0,39.0,-100.00,WSW,240,9.0,11.0,97,-99.99,,,-99.99,,2013-02-20 02:41:00,
2013-02-19 21:52:00,39.0,39.0,-100.00,WSW,240,9.0,11.0,97,-99.99,,,-99.99,,2013-02-20 02:52:00,
2013-02-19 22:00:00,38.0,38.0,-100.00,West,270,11.0,13.0,97,-99.99,,,-99.99,,2013-02-20 03:00:00,
2013-02-19 22:01:00,38.0,38.0,-100.00,West,260,7.0,9.0,97,-99.99,,,-99.99,,2013-02-20 03:01:00,
2013-02-19 22:11:00,38.0,38.0,-100.00,West,260,7.0,9.0,97,-99.99,,,-99.99,,2013-02-20 03:11:00,
2013-02-19 22:21:00,37.0,37.0,-100.00,West,280,9.0,11.0,97,-99.99,,,-99.99,,2013-02-20 03:21:00,
2013-02-19 22:31:00,37.0,37.0,-100.00,West,280,9.0,11.0,97,-99.99,,,-99.99,,2013-02-20 03:31:00,
2013-02-19 22:41:00,38.0,38.0,-100.00,West,270,11.0,13.0,97,-99.99,,,-99.99,,2013-02-20 03:41:00,
2013-02-19 22:51:00,38.0,38.0,-100.00,West,270,11.0,13.0,97,-99.99,,,-99.99,,2013-02-20 03:51:00,
2013-02-19 23:21:00,38.0,38.0,-100.00,West,260,11.0,11.0,97,-99.99,,,-99.99,,2013-02-20 04:21:00,
2013-02-19 23:31:00,38.0,38.0,-100.00,West,260,11.0,11.0,97,-99.99,,,-99.99,,2013-02-20 04:31:00,
2013-02-19 23:41:00,38.0,37.0,-100.00,West,260,11.0,13.0,98,-99.99,,,-99.99,,2013-02-20 04:41:00,
2013-02-19 23:51:00,38.0,37.0,-100.00,West,260,11.0,13.0,98,-99.99,,,-99.99,,2013-02-20 04:51:00,